sensor_id;sensor_type;location;lat;lon;timestamp;P1;durP1;ratioP1;P2;durP2;ratioP2
37339;SDS011;23223;51.006;7.610;2024-01-07T00:01:56;4.65;;;4.00;;
37339;SDS011;23223;51.006;7.610;2024-01-07T00:04:21;4.32;;;3.75;;
37339;SDS011;23223;51.006;7.610;2024-01-07T00:06:47;4.47;;;3.53;;
37339;SDS011;23223;51.006;7.610;2024-01-07T00:09:12;4.05;;;3.60;;
37339;SDS011;23223;51.006;7.610;2024-01-07T00:11:38;3.75;;;3.28;;
37339;SDS011;23223;51.006;7.610;2024-01-07T00:14:05;4.47;;;4.05;;
37339;SDS011;23223;51.006;7.610;2024-01-07T00:16:30;3.75;;;2.97;;
37339;SDS011;23223;51.006;7.610;2024-01-07T00:18:56;3.80;;;3.28;;
37339;SDS011;23223;51.006;7.610;2024-01-07T00:21:22;4.18;;;3.78;;
37339;SDS011;23223;51.006;7.610;2024-01-07T00:23:48;4.22;;;3.10;;
37339;SDS011;23223;51.006;7.610;2024-01-07T00:26:13;3.00;;;2.58;;
37339;SDS011;23223;51.006;7.610;2024-01-07T00:28:39;3.47;;;2.80;;
37339;SDS011;23223;51.006;7.610;2024-01-07T00:31:04;4.47;;;3.42;;
37339;SDS011;23223;51.006;7.610;2024-01-07T00:33:32;5.35;;;4.00;;
37339;SDS011;23223;51.006;7.610;2024-01-07T00:35:59;4.20;;;2.67;;
37339;SDS011;23223;51.006;7.610;2024-01-07T00:38:24;4.15;;;3.15;;
37339;SDS011;23223;51.006;7.610;2024-01-07T00:40:50;3.45;;;2.67;;
37339;SDS011;23223;51.006;7.610;2024-01-07T00:43:16;3.75;;;3.20;;
37339;SDS011;23223;51.006;7.610;2024-01-07T00:45:41;3.25;;;2.92;;
37339;SDS011;23223;51.006;7.610;2024-01-07T00:48:07;3.92;;;3.00;;
37339;SDS011;23223;51.006;7.610;2024-01-07T00:50:32;3.97;;;3.30;;
37339;SDS011;23223;51.006;7.610;2024-01-07T00:52:58;3.38;;;3.08;;
37339;SDS011;23223;51.006;7.610;2024-01-07T00:55:23;3.78;;;3.22;;
37339;SDS011;23223;51.006;7.610;2024-01-07T00:57:49;3.42;;;2.67;;
37339;SDS011;23223;51.006;7.610;2024-01-07T01:00:15;3.83;;;2.90;;
37339;SDS011;23223;51.006;7.610;2024-01-07T01:02:41;3.67;;;3.05;;
37339;SDS011;23223;51.006;7.610;2024-01-07T01:05:07;3.85;;;3.40;;
37339;SDS011;23223;51.006;7.610;2024-01-07T01:07:33;3.65;;;3.25;;
37339;SDS011;23223;51.006;7.610;2024-01-07T01:09:58;3.88;;;3.20;;
37339;SDS011;23223;51.006;7.610;2024-01-07T01:12:24;3.35;;;3.03;;
37339;SDS011;23223;51.006;7.610;2024-01-07T01:14:49;3.88;;;3.47;;
37339;SDS011;23223;51.006;7.610;2024-01-07T01:17:15;4.22;;;3.70;;
37339;SDS011;23223;51.006;7.610;2024-01-07T01:19:41;4.30;;;3.55;;
37339;SDS011;23223;51.006;7.610;2024-01-07T01:22:06;4.28;;;3.38;;
37339;SDS011;23223;51.006;7.610;2024-01-07T01:24:32;6.95;;;3.42;;
37339;SDS011;23223;51.006;7.610;2024-01-07T01:26:57;4.63;;;4.22;;
37339;SDS011;23223;51.006;7.610;2024-01-07T01:29:23;5.50;;;4.38;;
37339;SDS011;23223;51.006;7.610;2024-01-07T01:31:49;3.20;;;2.90;;
37339;SDS011;23223;51.006;7.610;2024-01-07T01:34:14;5.25;;;4.35;;
37339;SDS011;23223;51.006;7.610;2024-01-07T01:36:40;5.90;;;4.55;;
37339;SDS011;23223;51.006;7.610;2024-01-07T01:39:05;4.97;;;4.05;;
37339;SDS011;23223;51.006;7.610;2024-01-07T01:41:31;5.47;;;4.13;;
37339;SDS011;23223;51.006;7.610;2024-01-07T01:43:58;5.57;;;4.63;;
37339;SDS011;23223;51.006;7.610;2024-01-07T01:46:25;4.57;;;3.55;;
37339;SDS011;23223;51.006;7.610;2024-01-07T01:48:51;4.78;;;4.28;;
37339;SDS011;23223;51.006;7.610;2024-01-07T01:51:17;4.80;;;4.15;;
37339;SDS011;23223;51.006;7.610;2024-01-07T01:53:42;5.40;;;4.60;;
37339;SDS011;23223;51.006;7.610;2024-01-07T01:56:09;6.68;;;4.85;;
37339;SDS011;23223;51.006;7.610;2024-01-07T01:58:36;3.83;;;3.17;;
37339;SDS011;23223;51.006;7.610;2024-01-07T02:01:03;6.40;;;4.40;;
37339;SDS011;23223;51.006;7.610;2024-01-07T02:03:28;5.82;;;4.35;;
37339;SDS011;23223;51.006;7.610;2024-01-07T02:05:54;6.43;;;4.97;;
37339;SDS011;23223;51.006;7.610;2024-01-07T02:08:22;5.30;;;4.60;;
37339;SDS011;23223;51.006;7.610;2024-01-07T02:10:47;5.82;;;4.32;;
37339;SDS011;23223;51.006;7.610;2024-01-07T02:13:13;5.82;;;4.80;;
37339;SDS011;23223;51.006;7.610;2024-01-07T02:15:39;6.07;;;4.88;;
37339;SDS011;23223;51.006;7.610;2024-01-07T02:18:04;3.85;;;3.40;;
37339;SDS011;23223;51.006;7.610;2024-01-07T02:20:30;5.28;;;3.55;;
37339;SDS011;23223;51.006;7.610;2024-01-07T02:22:55;4.35;;;3.60;;
37339;SDS011;23223;51.006;7.610;2024-01-07T02:25:24;6.72;;;4.85;;
37339;SDS011;23223;51.006;7.610;2024-01-07T02:27:50;3.85;;;3.40;;
37339;SDS011;23223;51.006;7.610;2024-01-07T02:30:15;4.93;;;4.32;;
37339;SDS011;23223;51.006;7.610;2024-01-07T02:32:42;5.78;;;4.03;;
37339;SDS011;23223;51.006;7.610;2024-01-07T02:35:07;4.95;;;4.10;;
37339;SDS011;23223;51.006;7.610;2024-01-07T02:37:33;5.15;;;4.07;;
37339;SDS011;23223;51.006;7.610;2024-01-07T02:39:59;4.55;;;4.03;;
37339;SDS011;23223;51.006;7.610;2024-01-07T02:42:25;5.10;;;4.18;;
37339;SDS011;23223;51.006;7.610;2024-01-07T02:44:50;5.18;;;4.60;;
37339;SDS011;23223;51.006;7.610;2024-01-07T02:47:16;5.63;;;4.43;;
37339;SDS011;23223;51.006;7.610;2024-01-07T02:49:42;5.28;;;4.05;;
37339;SDS011;23223;51.006;7.610;2024-01-07T02:52:07;7.25;;;4.32;;
37339;SDS011;23223;51.006;7.610;2024-01-07T02:54:33;6.50;;;3.80;;
37339;SDS011;23223;51.006;7.610;2024-01-07T02:56:58;5.40;;;4.15;;
37339;SDS011;23223;51.006;7.610;2024-01-07T02:59:24;5.30;;;4.40;;
37339;SDS011;23223;51.006;7.610;2024-01-07T03:01:49;4.65;;;3.90;;
37339;SDS011;23223;51.006;7.610;2024-01-07T03:04:15;5.22;;;4.13;;
37339;SDS011;23223;51.006;7.610;2024-01-07T03:06:41;4.82;;;4.13;;
37339;SDS011;23223;51.006;7.610;2024-01-07T03:09:06;4.78;;;3.92;;
37339;SDS011;23223;51.006;7.610;2024-01-07T03:11:32;3.35;;;2.95;;
37339;SDS011;23223;51.006;7.610;2024-01-07T03:13:58;3.60;;;3.03;;
37339;SDS011;23223;51.006;7.610;2024-01-07T03:16:25;4.43;;;3.78;;
37339;SDS011;23223;51.006;7.610;2024-01-07T03:18:51;4.20;;;3.10;;
37339;SDS011;23223;51.006;7.610;2024-01-07T03:21:21;4.45;;;3.58;;
37339;SDS011;23223;51.006;7.610;2024-01-07T03:23:48;4.00;;;3.25;;
37339;SDS011;23223;51.006;7.610;2024-01-07T03:26:15;4.90;;;3.92;;
37339;SDS011;23223;51.006;7.610;2024-01-07T03:28:41;5.70;;;4.05;;
37339;SDS011;23223;51.006;7.610;2024-01-07T03:31:16;4.30;;;3.63;;
37339;SDS011;23223;51.006;7.610;2024-01-07T03:33:44;7.15;;;5.15;;
37339;SDS011;23223;51.006;7.610;2024-01-07T03:36:10;7.28;;;4.95;;
37339;SDS011;23223;51.006;7.610;2024-01-07T03:38:36;8.27;;;5.28;;
37339;SDS011;23223;51.006;7.610;2024-01-07T03:41:02;8.15;;;5.60;;
37339;SDS011;23223;51.006;7.610;2024-01-07T03:43:28;6.72;;;5.00;;
37339;SDS011;23223;51.006;7.610;2024-01-07T03:45:54;6.28;;;5.43;;
37339;SDS011;23223;51.006;7.610;2024-01-07T03:48:20;4.60;;;4.03;;
37339;SDS011;23223;51.006;7.610;2024-01-07T03:50:46;10.05;;;7.10;;
37339;SDS011;23223;51.006;7.610;2024-01-07T03:53:12;6.72;;;5.43;;
37339;SDS011;23223;51.006;7.610;2024-01-07T03:55:37;6.43;;;4.22;;
37339;SDS011;23223;51.006;7.610;2024-01-07T03:58:04;8.95;;;5.55;;
37339;SDS011;23223;51.006;7.610;2024-01-07T04:00:30;6.53;;;5.63;;
37339;SDS011;23223;51.006;7.610;2024-01-07T04:02:56;8.30;;;6.10;;
37339;SDS011;23223;51.006;7.610;2024-01-07T04:05:22;7.38;;;4.82;;
37339;SDS011;23223;51.006;7.610;2024-01-07T04:07:47;8.68;;;6.53;;
37339;SDS011;23223;51.006;7.610;2024-01-07T04:10:13;6.55;;;4.63;;
37339;SDS011;23223;51.006;7.610;2024-01-07T04:12:41;8.93;;;6.82;;
37339;SDS011;23223;51.006;7.610;2024-01-07T04:15:07;6.15;;;4.43;;
37339;SDS011;23223;51.006;7.610;2024-01-07T04:17:33;9.98;;;6.93;;
37339;SDS011;23223;51.006;7.610;2024-01-07T04:19:59;8.13;;;6.22;;
37339;SDS011;23223;51.006;7.610;2024-01-07T04:22:24;10.18;;;6.63;;
37339;SDS011;23223;51.006;7.610;2024-01-07T04:24:50;8.75;;;6.50;;
37339;SDS011;23223;51.006;7.610;2024-01-07T04:27:15;8.18;;;6.38;;
37339;SDS011;23223;51.006;7.610;2024-01-07T04:29:41;10.82;;;7.30;;
37339;SDS011;23223;51.006;7.610;2024-01-07T04:32:07;9.40;;;7.22;;
37339;SDS011;23223;51.006;7.610;2024-01-07T04:34:32;8.45;;;6.47;;
37339;SDS011;23223;51.006;7.610;2024-01-07T04:36:58;10.15;;;7.65;;
37339;SDS011;23223;51.006;7.610;2024-01-07T04:39:23;11.45;;;7.85;;
37339;SDS011;23223;51.006;7.610;2024-01-07T04:41:49;10.18;;;7.07;;
37339;SDS011;23223;51.006;7.610;2024-01-07T04:44:14;9.98;;;7.45;;
37339;SDS011;23223;51.006;7.610;2024-01-07T04:46:40;9.80;;;5.82;;
37339;SDS011;23223;51.006;7.610;2024-01-07T04:49:06;7.90;;;5.68;;
37339;SDS011;23223;51.006;7.610;2024-01-07T04:51:32;10.02;;;7.25;;
37339;SDS011;23223;51.006;7.610;2024-01-07T04:53:58;8.90;;;6.85;;
37339;SDS011;23223;51.006;7.610;2024-01-07T04:56:27;8.73;;;7.03;;
37339;SDS011;23223;51.006;7.610;2024-01-07T04:58:52;8.40;;;6.40;;
37339;SDS011;23223;51.006;7.610;2024-01-07T05:01:18;8.50;;;5.95;;
37339;SDS011;23223;51.006;7.610;2024-01-07T05:03:43;8.65;;;5.80;;
37339;SDS011;23223;51.006;7.610;2024-01-07T05:06:12;8.10;;;5.68;;
37339;SDS011;23223;51.006;7.610;2024-01-07T05:08:39;7.18;;;5.40;;
37339;SDS011;23223;51.006;7.610;2024-01-07T05:11:09;8.13;;;5.80;;
37339;SDS011;23223;51.006;7.610;2024-01-07T05:13:35;9.30;;;7.00;;
37339;SDS011;23223;51.006;7.610;2024-01-07T05:16:03;9.00;;;7.10;;
37339;SDS011;23223;51.006;7.610;2024-01-07T05:18:29;12.10;;;8.38;;
37339;SDS011;23223;51.006;7.610;2024-01-07T05:21:05;12.10;;;7.93;;
37339;SDS011;23223;51.006;7.610;2024-01-07T05:23:31;11.18;;;8.50;;
37339;SDS011;23223;51.006;7.610;2024-01-07T05:25:56;13.75;;;8.35;;
37339;SDS011;23223;51.006;7.610;2024-01-07T05:28:25;10.85;;;8.23;;
37339;SDS011;23223;51.006;7.610;2024-01-07T05:30:51;11.90;;;8.82;;
37339;SDS011;23223;51.006;7.610;2024-01-07T05:33:16;9.20;;;7.78;;
37339;SDS011;23223;51.006;7.610;2024-01-07T05:35:42;9.05;;;6.32;;
37339;SDS011;23223;51.006;7.610;2024-01-07T05:38:08;8.65;;;6.10;;
37339;SDS011;23223;51.006;7.610;2024-01-07T05:40:36;12.48;;;8.70;;
37339;SDS011;23223;51.006;7.610;2024-01-07T05:43:01;10.25;;;7.85;;
37339;SDS011;23223;51.006;7.610;2024-01-07T05:45:27;10.80;;;8.68;;
37339;SDS011;23223;51.006;7.610;2024-01-07T05:47:52;11.68;;;8.25;;
37339;SDS011;23223;51.006;7.610;2024-01-07T05:50:18;9.02;;;6.38;;
37339;SDS011;23223;51.006;7.610;2024-01-07T05:52:45;10.60;;;8.27;;
37339;SDS011;23223;51.006;7.610;2024-01-07T05:55:11;9.13;;;6.78;;
37339;SDS011;23223;51.006;7.610;2024-01-07T05:57:36;8.98;;;6.38;;
37339;SDS011;23223;51.006;7.610;2024-01-07T06:00:02;8.70;;;6.95;;
37339;SDS011;23223;51.006;7.610;2024-01-07T06:02:28;9.27;;;7.38;;
37339;SDS011;23223;51.006;7.610;2024-01-07T06:04:54;6.13;;;5.40;;
37339;SDS011;23223;51.006;7.610;2024-01-07T06:07:19;11.43;;;7.82;;
37339;SDS011;23223;51.006;7.610;2024-01-07T06:09:45;6.88;;;5.50;;
37339;SDS011;23223;51.006;7.610;2024-01-07T06:12:13;12.68;;;8.73;;
37339;SDS011;23223;51.006;7.610;2024-01-07T06:14:39;11.57;;;8.52;;
37339;SDS011;23223;51.006;7.610;2024-01-07T06:17:04;12.02;;;8.20;;
37339;SDS011;23223;51.006;7.610;2024-01-07T06:19:30;11.35;;;7.35;;
37339;SDS011;23223;51.006;7.610;2024-01-07T06:21:56;10.40;;;7.55;;
37339;SDS011;23223;51.006;7.610;2024-01-07T06:24:21;10.73;;;7.03;;
37339;SDS011;23223;51.006;7.610;2024-01-07T06:26:47;11.52;;;8.48;;
37339;SDS011;23223;51.006;7.610;2024-01-07T06:29:12;9.52;;;7.03;;
37339;SDS011;23223;51.006;7.610;2024-01-07T06:31:44;12.30;;;8.10;;
37339;SDS011;23223;51.006;7.610;2024-01-07T06:34:14;8.35;;;6.47;;
37339;SDS011;23223;51.006;7.610;2024-01-07T06:36:40;11.35;;;8.02;;
37339;SDS011;23223;51.006;7.610;2024-01-07T06:39:06;8.82;;;5.90;;
37339;SDS011;23223;51.006;7.610;2024-01-07T06:41:33;10.57;;;8.80;;
37339;SDS011;23223;51.006;7.610;2024-01-07T06:43:59;14.45;;;9.15;;
37339;SDS011;23223;51.006;7.610;2024-01-07T06:46:25;11.38;;;7.97;;
37339;SDS011;23223;51.006;7.610;2024-01-07T06:48:53;11.55;;;7.45;;
37339;SDS011;23223;51.006;7.610;2024-01-07T06:51:19;11.20;;;7.25;;
37339;SDS011;23223;51.006;7.610;2024-01-07T06:53:44;11.88;;;7.57;;
37339;SDS011;23223;51.006;7.610;2024-01-07T06:56:10;12.23;;;8.13;;
37339;SDS011;23223;51.006;7.610;2024-01-07T06:58:35;7.88;;;5.72;;
37339;SDS011;23223;51.006;7.610;2024-01-07T07:01:06;11.95;;;8.75;;
37339;SDS011;23223;51.006;7.610;2024-01-07T07:03:32;9.90;;;6.43;;
37339;SDS011;23223;51.006;7.610;2024-01-07T07:05:58;10.00;;;5.80;;
37339;SDS011;23223;51.006;7.610;2024-01-07T07:08:23;12.27;;;8.70;;
37339;SDS011;23223;51.006;7.610;2024-01-07T07:10:49;8.73;;;6.50;;
37339;SDS011;23223;51.006;7.610;2024-01-07T07:13:17;9.50;;;7.25;;
37339;SDS011;23223;51.006;7.610;2024-01-07T07:15:42;9.23;;;6.40;;
37339;SDS011;23223;51.006;7.610;2024-01-07T07:18:10;11.70;;;8.65;;
37339;SDS011;23223;51.006;7.610;2024-01-07T07:20:36;9.43;;;6.65;;
37339;SDS011;23223;51.006;7.610;2024-01-07T07:23:02;12.57;;;8.52;;
37339;SDS011;23223;51.006;7.610;2024-01-07T07:25:34;11.32;;;8.63;;
37339;SDS011;23223;51.006;7.610;2024-01-07T07:27:59;8.68;;;6.72;;
37339;SDS011;23223;51.006;7.610;2024-01-07T07:30:25;10.13;;;7.78;;
37339;SDS011;23223;51.006;7.610;2024-01-07T07:32:50;9.23;;;6.50;;
37339;SDS011;23223;51.006;7.610;2024-01-07T07:35:18;11.95;;;9.27;;
37339;SDS011;23223;51.006;7.610;2024-01-07T07:37:43;13.55;;;9.80;;
37339;SDS011;23223;51.006;7.610;2024-01-07T07:40:09;10.88;;;7.78;;
37339;SDS011;23223;51.006;7.610;2024-01-07T07:42:37;10.82;;;7.43;;
37339;SDS011;23223;51.006;7.610;2024-01-07T07:45:04;11.18;;;7.53;;
37339;SDS011;23223;51.006;7.610;2024-01-07T07:47:30;12.63;;;10.25;;
37339;SDS011;23223;51.006;7.610;2024-01-07T07:49:56;8.35;;;6.38;;
37339;SDS011;23223;51.006;7.610;2024-01-07T07:52:22;12.77;;;9.63;;
37339;SDS011;23223;51.006;7.610;2024-01-07T07:54:50;14.07;;;9.02;;
37339;SDS011;23223;51.006;7.610;2024-01-07T07:57:19;12.82;;;9.10;;
37339;SDS011;23223;51.006;7.610;2024-01-07T07:59:46;10.57;;;7.53;;
37339;SDS011;23223;51.006;7.610;2024-01-07T08:02:13;10.20;;;7.38;;
37339;SDS011;23223;51.006;7.610;2024-01-07T08:04:38;9.88;;;6.53;;
37339;SDS011;23223;51.006;7.610;2024-01-07T08:07:06;9.07;;;7.53;;
37339;SDS011;23223;51.006;7.610;2024-01-07T08:09:35;12.60;;;9.13;;
37339;SDS011;23223;51.006;7.610;2024-01-07T08:12:04;13.13;;;10.18;;
37339;SDS011;23223;51.006;7.610;2024-01-07T08:14:31;14.13;;;9.48;;
37339;SDS011;23223;51.006;7.610;2024-01-07T08:16:57;15.70;;;9.52;;
37339;SDS011;23223;51.006;7.610;2024-01-07T08:19:28;6.85;;;5.65;;
37339;SDS011;23223;51.006;7.610;2024-01-07T08:21:54;8.93;;;6.07;;
37339;SDS011;23223;51.006;7.610;2024-01-07T08:24:21;12.82;;;8.35;;
37339;SDS011;23223;51.006;7.610;2024-01-07T08:26:47;7.78;;;5.55;;
37339;SDS011;23223;51.006;7.610;2024-01-07T08:29:12;13.98;;;9.43;;
37339;SDS011;23223;51.006;7.610;2024-01-07T08:31:38;10.23;;;7.70;;
37339;SDS011;23223;51.006;7.610;2024-01-07T08:34:04;11.57;;;8.13;;
37339;SDS011;23223;51.006;7.610;2024-01-07T08:36:32;7.88;;;5.55;;
37339;SDS011;23223;51.006;7.610;2024-01-07T08:39:01;9.63;;;6.85;;
37339;SDS011;23223;51.006;7.610;2024-01-07T08:41:27;12.85;;;8.00;;
37339;SDS011;23223;51.006;7.610;2024-01-07T08:43:55;10.75;;;7.35;;
37339;SDS011;23223;51.006;7.610;2024-01-07T08:46:21;7.28;;;5.68;;
37339;SDS011;23223;51.006;7.610;2024-01-07T08:48:46;10.60;;;8.20;;
37339;SDS011;23223;51.006;7.610;2024-01-07T08:51:12;10.85;;;8.25;;
37339;SDS011;23223;51.006;7.610;2024-01-07T08:53:39;10.20;;;8.07;;
37339;SDS011;23223;51.006;7.610;2024-01-07T08:56:05;11.80;;;8.93;;
37339;SDS011;23223;51.006;7.610;2024-01-07T08:58:31;9.35;;;6.40;;
37339;SDS011;23223;51.006;7.610;2024-01-07T09:00:57;13.63;;;9.52;;
37339;SDS011;23223;51.006;7.610;2024-01-07T09:03:23;13.18;;;10.20;;
37339;SDS011;23223;51.006;7.610;2024-01-07T09:05:48;8.68;;;6.90;;
37339;SDS011;23223;51.006;7.610;2024-01-07T09:08:14;8.52;;;7.03;;
37339;SDS011;23223;51.006;7.610;2024-01-07T09:10:40;9.38;;;7.32;;
37339;SDS011;23223;51.006;7.610;2024-01-07T09:13:05;11.85;;;8.00;;
37339;SDS011;23223;51.006;7.610;2024-01-07T09:15:34;8.98;;;7.75;;
37339;SDS011;23223;51.006;7.610;2024-01-07T09:18:02;8.85;;;6.40;;
37339;SDS011;23223;51.006;7.610;2024-01-07T09:20:28;9.05;;;7.60;;
37339;SDS011;23223;51.006;7.610;2024-01-07T09:22:56;8.55;;;6.57;;
37339;SDS011;23223;51.006;7.610;2024-01-07T09:25:22;6.80;;;5.57;;
37339;SDS011;23223;51.006;7.610;2024-01-07T09:27:48;7.22;;;6.10;;
37339;SDS011;23223;51.006;7.610;2024-01-07T09:30:13;7.22;;;5.13;;
37339;SDS011;23223;51.006;7.610;2024-01-07T09:32:45;6.55;;;4.55;;
37339;SDS011;23223;51.006;7.610;2024-01-07T09:35:10;5.78;;;5.00;;
37339;SDS011;23223;51.006;7.610;2024-01-07T09:37:39;7.65;;;5.50;;
37339;SDS011;23223;51.006;7.610;2024-01-07T09:40:05;6.00;;;5.40;;
37339;SDS011;23223;51.006;7.610;2024-01-07T09:42:31;7.50;;;4.32;;
37339;SDS011;23223;51.006;7.610;2024-01-07T09:44:57;4.45;;;3.83;;
37339;SDS011;23223;51.006;7.610;2024-01-07T09:47:31;9.05;;;5.10;;
37339;SDS011;23223;51.006;7.610;2024-01-07T09:49:57;6.80;;;5.57;;
37339;SDS011;23223;51.006;7.610;2024-01-07T09:52:23;6.63;;;5.90;;
37339;SDS011;23223;51.006;7.610;2024-01-07T09:54:53;7.05;;;5.35;;
37339;SDS011;23223;51.006;7.610;2024-01-07T09:57:23;5.53;;;5.00;;
37339;SDS011;23223;51.006;7.610;2024-01-07T09:59:49;9.73;;;6.90;;
37339;SDS011;23223;51.006;7.610;2024-01-07T10:02:15;7.82;;;3.95;;
37339;SDS011;23223;51.006;7.610;2024-01-07T10:04:44;7.22;;;5.50;;
37339;SDS011;23223;51.006;7.610;2024-01-07T10:07:12;7.80;;;6.38;;
37339;SDS011;23223;51.006;7.610;2024-01-07T10:09:39;6.72;;;4.95;;
37339;SDS011;23223;51.006;7.610;2024-01-07T10:12:09;8.48;;;6.38;;
37339;SDS011;23223;51.006;7.610;2024-01-07T10:14:35;7.43;;;5.25;;
37339;SDS011;23223;51.006;7.610;2024-01-07T10:17:00;8.38;;;5.65;;
37339;SDS011;23223;51.006;7.610;2024-01-07T10:19:26;8.50;;;6.32;;
37339;SDS011;23223;51.006;7.610;2024-01-07T10:22:01;9.80;;;5.85;;
37339;SDS011;23223;51.006;7.610;2024-01-07T10:24:35;6.95;;;4.45;;
37339;SDS011;23223;51.006;7.610;2024-01-07T10:27:05;7.55;;;6.57;;
37339;SDS011;23223;51.006;7.610;2024-01-07T10:29:31;10.50;;;7.82;;
37339;SDS011;23223;51.006;7.610;2024-01-07T10:31:58;11.38;;;7.75;;
37339;SDS011;23223;51.006;7.610;2024-01-07T10:34:27;9.55;;;7.22;;
37339;SDS011;23223;51.006;7.610;2024-01-07T10:36:58;11.52;;;6.97;;
37339;SDS011;23223;51.006;7.610;2024-01-07T10:39:25;6.25;;;4.22;;
37339;SDS011;23223;51.006;7.610;2024-01-07T10:41:51;10.40;;;6.82;;
37339;SDS011;23223;51.006;7.610;2024-01-07T10:44:22;9.93;;;7.28;;
37339;SDS011;23223;51.006;7.610;2024-01-07T10:46:55;9.98;;;5.63;;
37339;SDS011;23223;51.006;7.610;2024-01-07T10:49:22;7.47;;;4.80;;
37339;SDS011;23223;51.006;7.610;2024-01-07T10:51:51;10.18;;;7.15;;
37339;SDS011;23223;51.006;7.610;2024-01-07T10:54:29;11.63;;;8.23;;
37339;SDS011;23223;51.006;7.610;2024-01-07T10:57:00;9.88;;;7.55;;
37339;SDS011;23223;51.006;7.610;2024-01-07T10:59:33;11.65;;;8.07;;
37339;SDS011;23223;51.006;7.610;2024-01-07T11:02:00;8.38;;;6.65;;
37339;SDS011;23223;51.006;7.610;2024-01-07T11:07:18;9.68;;;3.75;;
37339;SDS011;23223;51.006;7.610;2024-01-07T11:10:08;5.20;;;4.28;;
37339;SDS011;23223;51.006;7.610;2024-01-07T11:12:38;11.63;;;7.40;;
37339;SDS011;23223;51.006;7.610;2024-01-07T11:15:07;7.15;;;5.88;;
37339;SDS011;23223;51.006;7.610;2024-01-07T11:20:12;8.20;;;6.40;;
37339;SDS011;23223;51.006;7.610;2024-01-07T11:22:43;9.48;;;7.20;;
37339;SDS011;23223;51.006;7.610;2024-01-07T11:25:28;10.18;;;7.85;;
37339;SDS011;23223;51.006;7.610;2024-01-07T11:27:58;12.15;;;6.68;;
37339;SDS011;23223;51.006;7.610;2024-01-07T11:30:26;9.85;;;7.40;;
37339;SDS011;23223;51.006;7.610;2024-01-07T11:32:59;8.55;;;6.78;;
37339;SDS011;23223;51.006;7.610;2024-01-07T11:38:26;9.10;;;6.40;;
37339;SDS011;23223;51.006;7.610;2024-01-07T11:40:51;8.70;;;6.88;;
37339;SDS011;23223;51.006;7.610;2024-01-07T11:43:18;6.90;;;5.53;;
37339;SDS011;23223;51.006;7.610;2024-01-07T11:45:44;6.10;;;3.53;;
37339;SDS011;23223;51.006;7.610;2024-01-07T11:48:10;8.40;;;5.78;;
37339;SDS011;23223;51.006;7.610;2024-01-07T11:50:38;9.63;;;6.53;;
37339;SDS011;23223;51.006;7.610;2024-01-07T11:53:07;4.78;;;3.78;;
37339;SDS011;23223;51.006;7.610;2024-01-07T11:55:33;10.13;;;6.80;;
37339;SDS011;23223;51.006;7.610;2024-01-07T11:58:00;6.22;;;4.38;;
37339;SDS011;23223;51.006;7.610;2024-01-07T12:00:31;6.93;;;4.93;;
37339;SDS011;23223;51.006;7.610;2024-01-07T12:02:58;10.02;;;7.40;;
37339;SDS011;23223;51.006;7.610;2024-01-07T12:05:28;11.25;;;8.13;;
37339;SDS011;23223;51.006;7.610;2024-01-07T12:07:54;9.52;;;6.68;;
37339;SDS011;23223;51.006;7.610;2024-01-07T12:10:20;9.55;;;7.28;;
37339;SDS011;23223;51.006;7.610;2024-01-07T12:12:46;7.78;;;5.30;;
37339;SDS011;23223;51.006;7.610;2024-01-07T12:15:12;10.50;;;8.07;;
37339;SDS011;23223;51.006;7.610;2024-01-07T12:17:39;11.43;;;6.65;;
37339;SDS011;23223;51.006;7.610;2024-01-07T12:20:05;10.98;;;6.72;;
37339;SDS011;23223;51.006;7.610;2024-01-07T12:22:32;11.65;;;6.75;;
37339;SDS011;23223;51.006;7.610;2024-01-07T12:25:07;12.27;;;6.97;;
37339;SDS011;23223;51.006;7.610;2024-01-07T12:27:33;7.68;;;6.30;;
37339;SDS011;23223;51.006;7.610;2024-01-07T12:30:00;12.75;;;5.97;;
37339;SDS011;23223;51.006;7.610;2024-01-07T12:32:29;10.60;;;6.65;;
37339;SDS011;23223;51.006;7.610;2024-01-07T12:35:02;13.15;;;6.50;;
37339;SDS011;23223;51.006;7.610;2024-01-07T12:37:28;12.50;;;6.25;;
37339;SDS011;23223;51.006;7.610;2024-01-07T12:39:54;10.55;;;5.93;;
37339;SDS011;23223;51.006;7.610;2024-01-07T12:42:20;9.77;;;5.35;;
37339;SDS011;23223;51.006;7.610;2024-01-07T12:44:49;10.05;;;4.72;;
37339;SDS011;23223;51.006;7.610;2024-01-07T12:47:15;10.60;;;6.47;;
37339;SDS011;23223;51.006;7.610;2024-01-07T12:49:41;9.05;;;5.00;;
37339;SDS011;23223;51.006;7.610;2024-01-07T12:52:06;8.63;;;6.22;;
37339;SDS011;23223;51.006;7.610;2024-01-07T12:54:32;9.63;;;5.13;;
37339;SDS011;23223;51.006;7.610;2024-01-07T12:56:58;8.07;;;4.40;;
37339;SDS011;23223;51.006;7.610;2024-01-07T12:59:25;8.93;;;4.65;;
37339;SDS011;23223;51.006;7.610;2024-01-07T13:01:51;7.28;;;4.47;;
37339;SDS011;23223;51.006;7.610;2024-01-07T13:04:16;7.57;;;4.72;;
37339;SDS011;23223;51.006;7.610;2024-01-07T13:06:42;7.45;;;4.13;;
37339;SDS011;23223;51.006;7.610;2024-01-07T13:09:08;7.47;;;3.67;;
37339;SDS011;23223;51.006;7.610;2024-01-07T13:11:34;9.90;;;5.00;;
37339;SDS011;23223;51.006;7.610;2024-01-07T13:14:00;6.97;;;4.65;;
37339;SDS011;23223;51.006;7.610;2024-01-07T13:16:26;3.67;;;2.88;;
37339;SDS011;23223;51.006;7.610;2024-01-07T13:18:53;4.95;;;3.47;;
37339;SDS011;23223;51.006;7.610;2024-01-07T13:21:19;5.22;;;3.97;;
37339;SDS011;23223;51.006;7.610;2024-01-07T13:23:45;4.18;;;3.38;;
37339;SDS011;23223;51.006;7.610;2024-01-07T13:26:12;6.90;;;3.85;;
37339;SDS011;23223;51.006;7.610;2024-01-07T13:28:38;3.58;;;3.28;;
37339;SDS011;23223;51.006;7.610;2024-01-07T13:31:04;5.00;;;3.47;;
37339;SDS011;23223;51.006;7.610;2024-01-07T13:33:31;4.80;;;2.70;;
37339;SDS011;23223;51.006;7.610;2024-01-07T13:35:57;3.00;;;2.67;;
37339;SDS011;23223;51.006;7.610;2024-01-07T13:38:23;5.60;;;3.50;;
37339;SDS011;23223;51.006;7.610;2024-01-07T13:40:49;4.45;;;3.17;;
37339;SDS011;23223;51.006;7.610;2024-01-07T13:43:15;3.85;;;2.45;;
37339;SDS011;23223;51.006;7.610;2024-01-07T13:45:41;3.90;;;2.63;;
37339;SDS011;23223;51.006;7.610;2024-01-07T13:48:06;5.18;;;3.22;;
37339;SDS011;23223;51.006;7.610;2024-01-07T13:50:32;4.82;;;2.53;;
37339;SDS011;23223;51.006;7.610;2024-01-07T13:52:58;5.60;;;3.42;;
37339;SDS011;23223;51.006;7.610;2024-01-07T13:55:24;4.28;;;3.33;;
37339;SDS011;23223;51.006;7.610;2024-01-07T13:57:49;4.70;;;3.40;;
37339;SDS011;23223;51.006;7.610;2024-01-07T14:00:15;4.93;;;3.67;;
37339;SDS011;23223;51.006;7.610;2024-01-07T14:02:43;4.15;;;3.13;;
37339;SDS011;23223;51.006;7.610;2024-01-07T14:05:14;6.38;;;3.33;;
37339;SDS011;23223;51.006;7.610;2024-01-07T14:07:40;3.53;;;2.47;;
37339;SDS011;23223;51.006;7.610;2024-01-07T14:10:06;2.17;;;1.58;;
37339;SDS011;23223;51.006;7.610;2024-01-07T14:12:33;3.90;;;2.95;;
37339;SDS011;23223;51.006;7.610;2024-01-07T14:14:59;2.72;;;2.53;;
37339;SDS011;23223;51.006;7.610;2024-01-07T14:17:25;2.70;;;2.25;;
37339;SDS011;23223;51.006;7.610;2024-01-07T14:19:51;3.28;;;2.38;;
37339;SDS011;23223;51.006;7.610;2024-01-07T14:22:20;1.95;;;1.80;;
37339;SDS011;23223;51.006;7.610;2024-01-07T14:24:46;4.30;;;2.35;;
37339;SDS011;23223;51.006;7.610;2024-01-07T14:27:13;2.60;;;2.10;;
37339;SDS011;23223;51.006;7.610;2024-01-07T14:29:39;2.22;;;2.03;;
37339;SDS011;23223;51.006;7.610;2024-01-07T14:32:06;2.63;;;2.15;;
37339;SDS011;23223;51.006;7.610;2024-01-07T14:34:31;1.90;;;1.80;;
37339;SDS011;23223;51.006;7.610;2024-01-07T14:36:57;4.57;;;3.10;;
37339;SDS011;23223;51.006;7.610;2024-01-07T14:39:23;1.75;;;1.60;;
37339;SDS011;23223;51.006;7.610;2024-01-07T14:41:49;3.47;;;2.45;;
37339;SDS011;23223;51.006;7.610;2024-01-07T14:44:14;5.30;;;3.40;;
37339;SDS011;23223;51.006;7.610;2024-01-07T14:46:40;2.78;;;2.53;;
37339;SDS011;23223;51.006;7.610;2024-01-07T14:49:06;3.65;;;3.10;;